sensor_id;sensor_type;location;lat;lon;timestamp;P1;durP1;ratioP1;P2;durP2;ratioP2
25627;SDS011;40915;50.826;4.356;2024-01-10T00:01:33;7.83;;;4.13;;
25627;SDS011;40915;50.826;4.356;2024-01-10T00:03:59;8.67;;;4.53;;
25627;SDS011;40915;50.826;4.356;2024-01-10T00:06:25;8.30;;;4.87;;
25627;SDS011;40915;50.826;4.356;2024-01-10T00:08:50;10.20;;;4.57;;
25627;SDS011;40915;50.826;4.356;2024-01-10T00:11:16;10.13;;;4.93;;
25627;SDS011;40915;50.826;4.356;2024-01-10T00:13:42;9.40;;;5.10;;
25627;SDS011;40915;50.826;4.356;2024-01-10T00:16:08;8.67;;;4.80;;
25627;SDS011;40915;50.826;4.356;2024-01-10T00:18:34;12.80;;;5.00;;
25627;SDS011;40915;50.826;4.356;2024-01-10T00:20:59;10.23;;;4.83;;
25627;SDS011;40915;50.826;4.356;2024-01-10T00:23:25;8.13;;;4.37;;
25627;SDS011;40915;50.826;4.356;2024-01-10T00:25:51;8.40;;;4.53;;
25627;SDS011;40915;50.826;4.356;2024-01-10T00:28:16;7.60;;;4.53;;
25627;SDS011;40915;50.826;4.356;2024-01-10T00:30:43;9.53;;;4.63;;
25627;SDS011;40915;50.826;4.356;2024-01-10T00:33:09;9.73;;;5.27;;
25627;SDS011;40915;50.826;4.356;2024-01-10T00:35:36;13.13;;;5.37;;
25627;SDS011;40915;50.826;4.356;2024-01-10T00:38:02;8.57;;;5.00;;
25627;SDS011;40915;50.826;4.356;2024-01-10T00:40:28;7.83;;;4.50;;
25627;SDS011;40915;50.826;4.356;2024-01-10T00:42:54;9.00;;;4.63;;
25627;SDS011;40915;50.826;4.356;2024-01-10T00:45:19;8.87;;;4.80;;
25627;SDS011;40915;50.826;4.356;2024-01-10T00:47:45;9.17;;;4.73;;
25627;SDS011;40915;50.826;4.356;2024-01-10T00:50:13;6.83;;;4.10;;
25627;SDS011;40915;50.826;4.356;2024-01-10T00:52:39;11.60;;;4.63;;
25627;SDS011;40915;50.826;4.356;2024-01-10T00:55:05;9.10;;;5.27;;
25627;SDS011;40915;50.826;4.356;2024-01-10T00:57:31;8.17;;;4.20;;
25627;SDS011;40915;50.826;4.356;2024-01-10T00:59:56;9.07;;;4.80;;
25627;SDS011;40915;50.826;4.356;2024-01-10T01:02:22;8.27;;;4.73;;
25627;SDS011;40915;50.826;4.356;2024-01-10T01:04:48;7.30;;;4.23;;
25627;SDS011;40915;50.826;4.356;2024-01-10T01:07:13;11.27;;;5.10;;
25627;SDS011;40915;50.826;4.356;2024-01-10T01:09:39;10.07;;;5.17;;
25627;SDS011;40915;50.826;4.356;2024-01-10T01:12:05;8.80;;;4.97;;
25627;SDS011;40915;50.826;4.356;2024-01-10T01:14:31;9.47;;;4.80;;
25627;SDS011;40915;50.826;4.356;2024-01-10T01:16:56;7.10;;;4.87;;
25627;SDS011;40915;50.826;4.356;2024-01-10T01:19:22;8.83;;;4.93;;
25627;SDS011;40915;50.826;4.356;2024-01-10T01:21:47;10.33;;;5.30;;
25627;SDS011;40915;50.826;4.356;2024-01-10T01:24:13;8.83;;;5.03;;
25627;SDS011;40915;50.826;4.356;2024-01-10T01:26:39;10.73;;;4.93;;
25627;SDS011;40915;50.826;4.356;2024-01-10T01:29:04;10.97;;;5.43;;
25627;SDS011;40915;50.826;4.356;2024-01-10T01:31:31;9.77;;;5.27;;
25627;SDS011;40915;50.826;4.356;2024-01-10T01:33:56;10.60;;;5.47;;
25627;SDS011;40915;50.826;4.356;2024-01-10T01:36:22;8.60;;;4.77;;
25627;SDS011;40915;50.826;4.356;2024-01-10T01:38:48;10.07;;;5.13;;
25627;SDS011;40915;50.826;4.356;2024-01-10T01:41:14;8.83;;;5.17;;
25627;SDS011;40915;50.826;4.356;2024-01-10T01:43:40;10.10;;;5.30;;
25627;SDS011;40915;50.826;4.356;2024-01-10T01:46:06;9.50;;;5.10;;
25627;SDS011;40915;50.826;4.356;2024-01-10T01:48:32;10.50;;;5.20;;
25627;SDS011;40915;50.826;4.356;2024-01-10T01:51:02;11.13;;;5.03;;
25627;SDS011;40915;50.826;4.356;2024-01-10T01:53:35;12.03;;;5.27;;
25627;SDS011;40915;50.826;4.356;2024-01-10T01:56:02;11.50;;;5.53;;
25627;SDS011;40915;50.826;4.356;2024-01-10T01:58:30;10.37;;;5.60;;
25627;SDS011;40915;50.826;4.356;2024-01-10T02:00:56;10.50;;;5.37;;
25627;SDS011;40915;50.826;4.356;2024-01-10T02:03:22;10.70;;;4.93;;
25627;SDS011;40915;50.826;4.356;2024-01-10T02:05:48;9.80;;;5.20;;
25627;SDS011;40915;50.826;4.356;2024-01-10T02:08:14;9.77;;;5.37;;
25627;SDS011;40915;50.826;4.356;2024-01-10T02:10:40;12.93;;;5.83;;
25627;SDS011;40915;50.826;4.356;2024-01-10T02:13:06;10.80;;;5.93;;
25627;SDS011;40915;50.826;4.356;2024-01-10T02:15:33;9.33;;;5.33;;
25627;SDS011;40915;50.826;4.356;2024-01-10T02:18:00;9.90;;;5.33;;
25627;SDS011;40915;50.826;4.356;2024-01-10T02:20:26;11.57;;;5.27;;
25627;SDS011;40915;50.826;4.356;2024-01-10T02:22:52;10.07;;;5.00;;
25627;SDS011;40915;50.826;4.356;2024-01-10T02:25:17;8.70;;;5.10;;
25627;SDS011;40915;50.826;4.356;2024-01-10T02:27:43;8.77;;;4.90;;
25627;SDS011;40915;50.826;4.356;2024-01-10T02:30:09;9.90;;;4.83;;
25627;SDS011;40915;50.826;4.356;2024-01-10T02:32:36;9.43;;;4.80;;
25627;SDS011;40915;50.826;4.356;2024-01-10T02:35:02;8.40;;;5.03;;
25627;SDS011;40915;50.826;4.356;2024-01-10T02:37:28;10.80;;;5.13;;
25627;SDS011;40915;50.826;4.356;2024-01-10T02:39:54;8.77;;;5.63;;
25627;SDS011;40915;50.826;4.356;2024-01-10T02:42:19;10.20;;;5.03;;
25627;SDS011;40915;50.826;4.356;2024-01-10T02:44:45;11.00;;;5.53;;
25627;SDS011;40915;50.826;4.356;2024-01-10T02:47:11;12.87;;;5.57;;
25627;SDS011;40915;50.826;4.356;2024-01-10T02:49:38;10.20;;;5.37;;
25627;SDS011;40915;50.826;4.356;2024-01-10T02:52:03;7.87;;;5.13;;
25627;SDS011;40915;50.826;4.356;2024-01-10T02:54:29;10.43;;;5.63;;
25627;SDS011;40915;50.826;4.356;2024-01-10T02:56:55;10.13;;;5.33;;
25627;SDS011;40915;50.826;4.356;2024-01-10T02:59:20;9.90;;;4.57;;
25627;SDS011;40915;50.826;4.356;2024-01-10T03:01:46;10.80;;;5.17;;
25627;SDS011;40915;50.826;4.356;2024-01-10T03:04:12;10.80;;;5.03;;
25627;SDS011;40915;50.826;4.356;2024-01-10T03:06:38;8.90;;;5.50;;
25627;SDS011;40915;50.826;4.356;2024-01-10T03:09:03;9.03;;;5.30;;
25627;SDS011;40915;50.826;4.356;2024-01-10T03:11:29;9.73;;;4.93;;
25627;SDS011;40915;50.826;4.356;2024-01-10T03:14:09;9.10;;;4.87;;
25627;SDS011;40915;50.826;4.356;2024-01-10T03:16:36;10.70;;;4.97;;
25627;SDS011;40915;50.826;4.356;2024-01-10T03:19:02;9.03;;;4.87;;
25627;SDS011;40915;50.826;4.356;2024-01-10T03:21:28;12.07;;;5.50;;
25627;SDS011;40915;50.826;4.356;2024-01-10T03:23:57;11.57;;;5.60;;
25627;SDS011;40915;50.826;4.356;2024-01-10T03:26:24;14.07;;;5.37;;
25627;SDS011;40915;50.826;4.356;2024-01-10T03:28:51;10.60;;;5.57;;
25627;SDS011;40915;50.826;4.356;2024-01-10T03:31:17;10.13;;;5.60;;
25627;SDS011;40915;50.826;4.356;2024-01-10T03:33:43;11.93;;;5.33;;
25627;SDS011;40915;50.826;4.356;2024-01-10T03:36:11;8.77;;;4.87;;
25627;SDS011;40915;50.826;4.356;2024-01-10T03:38:38;9.93;;;5.07;;
25627;SDS011;40915;50.826;4.356;2024-01-10T03:41:04;10.43;;;5.10;;
25627;SDS011;40915;50.826;4.356;2024-01-10T03:43:29;8.47;;;5.00;;
25627;SDS011;40915;50.826;4.356;2024-01-10T03:45:55;8.83;;;5.60;;
25627;SDS011;40915;50.826;4.356;2024-01-10T03:48:22;9.07;;;4.90;;
25627;SDS011;40915;50.826;4.356;2024-01-10T03:50:47;9.30;;;5.30;;
25627;SDS011;40915;50.826;4.356;2024-01-10T03:53:13;10.33;;;5.70;;
25627;SDS011;40915;50.826;4.356;2024-01-10T03:55:39;8.83;;;4.97;;
25627;SDS011;40915;50.826;4.356;2024-01-10T03:58:04;10.43;;;5.70;;
25627;SDS011;40915;50.826;4.356;2024-01-10T04:00:30;13.30;;;5.23;;
25627;SDS011;40915;50.826;4.356;2024-01-10T04:02:56;11.13;;;5.33;;
25627;SDS011;40915;50.826;4.356;2024-01-10T04:05:22;9.73;;;5.40;;
25627;SDS011;40915;50.826;4.356;2024-01-10T04:07:49;9.77;;;5.03;;
25627;SDS011;40915;50.826;4.356;2024-01-10T04:10:15;9.73;;;4.87;;
25627;SDS011;40915;50.826;4.356;2024-01-10T04:12:41;10.00;;;5.60;;
25627;SDS011;40915;50.826;4.356;2024-01-10T04:15:07;8.97;;;5.10;;
25627;SDS011;40915;50.826;4.356;2024-01-10T04:17:33;10.63;;;4.87;;
25627;SDS011;40915;50.826;4.356;2024-01-10T04:19:59;11.93;;;5.60;;
25627;SDS011;40915;50.826;4.356;2024-01-10T04:22:24;9.93;;;5.13;;
25627;SDS011;40915;50.826;4.356;2024-01-10T04:24:50;11.23;;;5.73;;
25627;SDS011;40915;50.826;4.356;2024-01-10T04:27:16;9.47;;;5.60;;
25627;SDS011;40915;50.826;4.356;2024-01-10T04:29:45;11.43;;;5.47;;
25627;SDS011;40915;50.826;4.356;2024-01-10T04:32:11;12.13;;;5.13;;
25627;SDS011;40915;50.826;4.356;2024-01-10T04:34:36;9.83;;;5.37;;
25627;SDS011;40915;50.826;4.356;2024-01-10T04:37:02;10.73;;;5.20;;
25627;SDS011;40915;50.826;4.356;2024-01-10T04:39:28;10.03;;;4.93;;
25627;SDS011;40915;50.826;4.356;2024-01-10T04:41:54;11.57;;;5.90;;
25627;SDS011;40915;50.826;4.356;2024-01-10T04:44:20;7.73;;;4.97;;
25627;SDS011;40915;50.826;4.356;2024-01-10T04:46:45;9.93;;;5.10;;
25627;SDS011;40915;50.826;4.356;2024-01-10T04:49:11;8.67;;;5.17;;
25627;SDS011;40915;50.826;4.356;2024-01-10T04:51:37;13.73;;;5.23;;
25627;SDS011;40915;50.826;4.356;2024-01-10T04:54:04;10.93;;;5.33;;
25627;SDS011;40915;50.826;4.356;2024-01-10T04:56:30;10.97;;;5.63;;
25627;SDS011;40915;50.826;4.356;2024-01-10T04:58:55;9.97;;;5.33;;
25627;SDS011;40915;50.826;4.356;2024-01-10T05:01:21;9.93;;;5.37;;
25627;SDS011;40915;50.826;4.356;2024-01-10T05:03:46;8.77;;;5.47;;
25627;SDS011;40915;50.826;4.356;2024-01-10T05:06:12;9.83;;;5.23;;
25627;SDS011;40915;50.826;4.356;2024-01-10T05:08:38;10.07;;;5.87;;
25627;SDS011;40915;50.826;4.356;2024-01-10T05:11:03;8.00;;;5.00;;
25627;SDS011;40915;50.826;4.356;2024-01-10T05:13:29;13.07;;;5.70;;
25627;SDS011;40915;50.826;4.356;2024-01-10T05:15:55;12.13;;;5.77;;
25627;SDS011;40915;50.826;4.356;2024-01-10T05:18:21;10.53;;;5.70;;
25627;SDS011;40915;50.826;4.356;2024-01-10T05:20:47;11.80;;;5.63;;
25627;SDS011;40915;50.826;4.356;2024-01-10T05:23:13;9.70;;;5.37;;
25627;SDS011;40915;50.826;4.356;2024-01-10T05:25:38;11.93;;;6.03;;
25627;SDS011;40915;50.826;4.356;2024-01-10T05:28:04;10.77;;;5.10;;
25627;SDS011;40915;50.826;4.356;2024-01-10T05:30:30;11.40;;;5.90;;
25627;SDS011;40915;50.826;4.356;2024-01-10T05:32:57;9.33;;;5.17;;
25627;SDS011;40915;50.826;4.356;2024-01-10T05:35:23;11.47;;;5.30;;
25627;SDS011;40915;50.826;4.356;2024-01-10T05:37:51;10.67;;;5.10;;
25627;SDS011;40915;50.826;4.356;2024-01-10T05:40:17;11.73;;;5.60;;
25627;SDS011;40915;50.826;4.356;2024-01-10T05:42:43;11.37;;;5.60;;
25627;SDS011;40915;50.826;4.356;2024-01-10T05:45:09;9.00;;;5.27;;
25627;SDS011;40915;50.826;4.356;2024-01-10T05:47:35;12.03;;;5.17;;
25627;SDS011;40915;50.826;4.356;2024-01-10T05:50:02;10.07;;;5.20;;
25627;SDS011;40915;50.826;4.356;2024-01-10T05:52:31;12.27;;;5.23;;
25627;SDS011;40915;50.826;4.356;2024-01-10T05:54:58;8.70;;;4.80;;
25627;SDS011;40915;50.826;4.356;2024-01-10T05:57:26;11.50;;;5.03;;
25627;SDS011;40915;50.826;4.356;2024-01-10T05:59:52;11.97;;;5.87;;
25627;SDS011;40915;50.826;4.356;2024-01-10T06:02:21;10.03;;;5.10;;
25627;SDS011;40915;50.826;4.356;2024-01-10T06:04:47;11.37;;;5.50;;
25627;SDS011;40915;50.826;4.356;2024-01-10T06:07:13;10.37;;;5.33;;
25627;SDS011;40915;50.826;4.356;2024-01-10T06:09:39;9.33;;;5.23;;
25627;SDS011;40915;50.826;4.356;2024-01-10T06:12:05;8.83;;;5.17;;
25627;SDS011;40915;50.826;4.356;2024-01-10T06:14:31;13.07;;;5.57;;
25627;SDS011;40915;50.826;4.356;2024-01-10T06:16:57;13.53;;;6.10;;
25627;SDS011;40915;50.826;4.356;2024-01-10T06:19:24;11.43;;;5.87;;
25627;SDS011;40915;50.826;4.356;2024-01-10T06:21:50;13.53;;;6.10;;
25627;SDS011;40915;50.826;4.356;2024-01-10T06:24:17;8.90;;;5.27;;
25627;SDS011;40915;50.826;4.356;2024-01-10T06:26:43;9.43;;;5.37;;
25627;SDS011;40915;50.826;4.356;2024-01-10T06:29:08;10.33;;;5.80;;
25627;SDS011;40915;50.826;4.356;2024-01-10T06:31:34;9.33;;;5.43;;
25627;SDS011;40915;50.826;4.356;2024-01-10T06:34:00;10.87;;;5.23;;
25627;SDS011;40915;50.826;4.356;2024-01-10T06:36:25;12.27;;;5.50;;
25627;SDS011;40915;50.826;4.356;2024-01-10T06:38:51;10.67;;;5.37;;
25627;SDS011;40915;50.826;4.356;2024-01-10T06:41:17;11.73;;;5.80;;
25627;SDS011;40915;50.826;4.356;2024-01-10T06:43:48;10.87;;;5.80;;
25627;SDS011;40915;50.826;4.356;2024-01-10T06:46:13;10.47;;;5.63;;
25627;SDS011;40915;50.826;4.356;2024-01-10T06:48:39;11.77;;;5.33;;
25627;SDS011;40915;50.826;4.356;2024-01-10T06:51:09;11.37;;;5.30;;
25627;SDS011;40915;50.826;4.356;2024-01-10T06:53:36;9.23;;;4.77;;
25627;SDS011;40915;50.826;4.356;2024-01-10T06:56:02;10.47;;;5.07;;
25627;SDS011;40915;50.826;4.356;2024-01-10T06:58:28;13.00;;;6.23;;
25627;SDS011;40915;50.826;4.356;2024-01-10T07:00:55;8.63;;;5.30;;
25627;SDS011;40915;50.826;4.356;2024-01-10T07:03:20;11.03;;;5.80;;
25627;SDS011;40915;50.826;4.356;2024-01-10T07:05:46;10.53;;;5.50;;
25627;SDS011;40915;50.826;4.356;2024-01-10T07:08:12;10.67;;;5.30;;
25627;SDS011;40915;50.826;4.356;2024-01-10T07:10:37;8.50;;;5.10;;
25627;SDS011;40915;50.826;4.356;2024-01-10T07:13:03;10.33;;;5.70;;
25627;SDS011;40915;50.826;4.356;2024-01-10T07:15:29;9.57;;;4.90;;
25627;SDS011;40915;50.826;4.356;2024-01-10T07:17:55;12.00;;;5.60;;
25627;SDS011;40915;50.826;4.356;2024-01-10T07:20:21;10.07;;;5.23;;
25627;SDS011;40915;50.826;4.356;2024-01-10T07:22:49;10.80;;;5.13;;
25627;SDS011;40915;50.826;4.356;2024-01-10T07:25:16;10.60;;;5.60;;
25627;SDS011;40915;50.826;4.356;2024-01-10T07:27:42;10.40;;;5.57;;
25627;SDS011;40915;50.826;4.356;2024-01-10T07:30:08;11.83;;;5.60;;
25627;SDS011;40915;50.826;4.356;2024-01-10T07:32:43;11.00;;;5.53;;
25627;SDS011;40915;50.826;4.356;2024-01-10T07:35:10;10.73;;;5.43;;
25627;SDS011;40915;50.826;4.356;2024-01-10T07:37:38;12.90;;;5.47;;
25627;SDS011;40915;50.826;4.356;2024-01-10T07:40:05;9.93;;;5.40;;
25627;SDS011;40915;50.826;4.356;2024-01-10T07:42:33;10.70;;;5.57;;
25627;SDS011;40915;50.826;4.356;2024-01-10T07:44:59;15.83;;;5.57;;
25627;SDS011;40915;50.826;4.356;2024-01-10T07:47:25;10.23;;;5.23;;
25627;SDS011;40915;50.826;4.356;2024-01-10T07:49:50;10.23;;;5.37;;
25627;SDS011;40915;50.826;4.356;2024-01-10T07:52:16;11.20;;;5.10;;
25627;SDS011;40915;50.826;4.356;2024-01-10T07:54:42;12.00;;;4.97;;
25627;SDS011;40915;50.826;4.356;2024-01-10T07:57:08;12.80;;;6.03;;
25627;SDS011;40915;50.826;4.356;2024-01-10T07:59:33;12.07;;;5.83;;
25627;SDS011;40915;50.826;4.356;2024-01-10T08:01:59;14.27;;;6.07;;
25627;SDS011;40915;50.826;4.356;2024-01-10T08:04:26;9.57;;;5.63;;
25627;SDS011;40915;50.826;4.356;2024-01-10T08:06:52;10.27;;;5.23;;
25627;SDS011;40915;50.826;4.356;2024-01-10T08:09:18;13.67;;;5.73;;
25627;SDS011;40915;50.826;4.356;2024-01-10T08:11:44;11.23;;;5.50;;
25627;SDS011;40915;50.826;4.356;2024-01-10T08:14:10;10.00;;;5.40;;
25627;SDS011;40915;50.826;4.356;2024-01-10T08:16:36;12.30;;;5.70;;
25627;SDS011;40915;50.826;4.356;2024-01-10T08:19:02;15.43;;;6.20;;
25627;SDS011;40915;50.826;4.356;2024-01-10T08:21:27;11.07;;;5.80;;
25627;SDS011;40915;50.826;4.356;2024-01-10T08:23:53;15.40;;;5.97;;
25627;SDS011;40915;50.826;4.356;2024-01-10T08:26:19;11.23;;;6.17;;
25627;SDS011;40915;50.826;4.356;2024-01-10T08:28:44;13.73;;;6.37;;
25627;SDS011;40915;50.826;4.356;2024-01-10T08:31:10;12.10;;;5.70;;
25627;SDS011;40915;50.826;4.356;2024-01-10T08:33:37;12.30;;;6.10;;
25627;SDS011;40915;50.826;4.356;2024-01-10T08:36:04;10.17;;;5.33;;
25627;SDS011;40915;50.826;4.356;2024-01-10T08:38:30;10.37;;;5.43;;
25627;SDS011;40915;50.826;4.356;2024-01-10T08:40:56;10.10;;;5.60;;
25627;SDS011;40915;50.826;4.356;2024-01-10T08:43:21;9.53;;;5.77;;
25627;SDS011;40915;50.826;4.356;2024-01-10T08:45:47;10.90;;;5.70;;
25627;SDS011;40915;50.826;4.356;2024-01-10T08:48:13;13.80;;;6.03;;
25627;SDS011;40915;50.826;4.356;2024-01-10T08:50:39;10.73;;;5.67;;
25627;SDS011;40915;50.826;4.356;2024-01-10T08:53:04;11.17;;;5.97;;
25627;SDS011;40915;50.826;4.356;2024-01-10T08:55:31;14.53;;;6.30;;
25627;SDS011;40915;50.826;4.356;2024-01-10T08:57:57;11.13;;;6.00;;
25627;SDS011;40915;50.826;4.356;2024-01-10T09:00:22;12.47;;;6.43;;
25627;SDS011;40915;50.826;4.356;2024-01-10T09:02:49;12.90;;;6.20;;
25627;SDS011;40915;50.826;4.356;2024-01-10T09:05:15;15.60;;;6.13;;
25627;SDS011;40915;50.826;4.356;2024-01-10T09:07:41;11.70;;;5.73;;
25627;SDS011;40915;50.826;4.356;2024-01-10T09:10:07;11.93;;;5.77;;
25627;SDS011;40915;50.826;4.356;2024-01-10T09:12:33;10.57;;;6.37;;
25627;SDS011;40915;50.826;4.356;2024-01-10T09:15:00;10.13;;;6.00;;
25627;SDS011;40915;50.826;4.356;2024-01-10T09:17:26;12.43;;;5.87;;
25627;SDS011;40915;50.826;4.356;2024-01-10T09:19:53;12.33;;;6.07;;
25627;SDS011;40915;50.826;4.356;2024-01-10T09:22:19;12.67;;;6.10;;
25627;SDS011;40915;50.826;4.356;2024-01-10T09:24:44;11.00;;;5.97;;
25627;SDS011;40915;50.826;4.356;2024-01-10T09:27:10;12.13;;;6.03;;
25627;SDS011;40915;50.826;4.356;2024-01-10T09:29:36;12.23;;;5.97;;
25627;SDS011;40915;50.826;4.356;2024-01-10T09:32:02;15.90;;;6.50;;
25627;SDS011;40915;50.826;4.356;2024-01-10T09:34:28;10.07;;;5.93;;
25627;SDS011;40915;50.826;4.356;2024-01-10T09:36:54;12.67;;;6.40;;
25627;SDS011;40915;50.826;4.356;2024-01-10T09:39:20;10.73;;;6.47;;
25627;SDS011;40915;50.826;4.356;2024-01-10T09:41:46;13.20;;;5.93;;
25627;SDS011;40915;50.826;4.356;2024-01-10T09:44:15;13.93;;;6.70;;
25627;SDS011;40915;50.826;4.356;2024-01-10T09:46:43;11.50;;;6.30;;
25627;SDS011;40915;50.826;4.356;2024-01-10T09:49:14;16.40;;;6.83;;
25627;SDS011;40915;50.826;4.356;2024-01-10T09:51:40;12.50;;;6.60;;
25627;SDS011;40915;50.826;4.356;2024-01-10T09:54:05;12.50;;;6.37;;
25627;SDS011;40915;50.826;4.356;2024-01-10T09:56:32;13.60;;;6.53;;
25627;SDS011;40915;50.826;4.356;2024-01-10T09:59:01;15.43;;;6.87;;
25627;SDS011;40915;50.826;4.356;2024-01-10T10:01:29;13.30;;;6.93;;
25627;SDS011;40915;50.826;4.356;2024-01-10T10:03:55;17.30;;;6.23;;
25627;SDS011;40915;50.826;4.356;2024-01-10T10:06:22;15.27;;;6.60;;
25627;SDS011;40915;50.826;4.356;2024-01-10T10:08:48;12.80;;;6.73;;
25627;SDS011;40915;50.826;4.356;2024-01-10T10:11:13;13.33;;;7.10;;
25627;SDS011;40915;50.826;4.356;2024-01-10T10:13:39;12.20;;;7.13;;
25627;SDS011;40915;50.826;4.356;2024-01-10T10:16:07;16.42;;;9.38;;
25627;SDS011;40915;50.826;4.356;2024-01-10T10:18:34;13.67;;;7.70;;
25627;SDS011;40915;50.826;4.356;2024-01-10T10:21:13;11.80;;;6.83;;
25627;SDS011;40915;50.826;4.356;2024-01-10T10:23:43;10.23;;;6.60;;
25627;SDS011;40915;50.826;4.356;2024-01-10T10:26:22;13.10;;;7.37;;
25627;SDS011;40915;50.826;4.356;2024-01-10T10:28:49;13.27;;;6.60;;
25627;SDS011;40915;50.826;4.356;2024-01-10T10:31:15;11.43;;;6.17;;
25627;SDS011;40915;50.826;4.356;2024-01-10T10:33:42;11.37;;;6.87;;
25627;SDS011;40915;50.826;4.356;2024-01-10T10:36:09;12.50;;;6.50;;
25627;SDS011;40915;50.826;4.356;2024-01-10T10:38:35;13.83;;;6.33;;
25627;SDS011;40915;50.826;4.356;2024-01-10T10:41:04;13.37;;;7.13;;
25627;SDS011;40915;50.826;4.356;2024-01-10T10:43:34;16.90;;;7.00;;
25627;SDS011;40915;50.826;4.356;2024-01-10T10:46:01;13.83;;;7.23;;
25627;SDS011;40915;50.826;4.356;2024-01-10T10:48:28;14.53;;;6.87;;
25627;SDS011;40915;50.826;4.356;2024-01-10T10:51:05;11.47;;;6.63;;
25627;SDS011;40915;50.826;4.356;2024-01-10T10:53:37;13.73;;;7.00;;
25627;SDS011;40915;50.826;4.356;2024-01-10T10:56:05;10.83;;;6.50;;
25627;SDS011;40915;50.826;4.356;2024-01-10T10:58:36;11.37;;;6.83;;
25627;SDS011;40915;50.826;4.356;2024-01-10T11:01:07;15.63;;;6.97;;
25627;SDS011;40915;50.826;4.356;2024-01-10T11:03:35;15.60;;;7.50;;
25627;SDS011;40915;50.826;4.356;2024-01-10T11:06:03;13.47;;;7.37;;
25627;SDS011;40915;50.826;4.356;2024-01-10T11:08:31;17.57;;;7.03;;
25627;SDS011;40915;50.826;4.356;2024-01-10T11:11:03;12.33;;;7.03;;
25627;SDS011;40915;50.826;4.356;2024-01-10T11:13:47;15.00;;;7.10;;
25627;SDS011;40915;50.826;4.356;2024-01-10T11:24:30;12.90;;;7.10;;
25627;SDS011;40915;50.826;4.356;2024-01-10T11:27:06;14.43;;;7.03;;
25627;SDS011;40915;50.826;4.356;2024-01-10T11:29:33;13.60;;;7.37;;
25627;SDS011;40915;50.826;4.356;2024-01-10T11:31:58;14.53;;;7.27;;
25627;SDS011;40915;50.826;4.356;2024-01-10T11:34:24;13.60;;;7.17;;
25627;SDS011;40915;50.826;4.356;2024-01-10T11:37:10;13.93;;;7.10;;
25627;SDS011;40915;50.826;4.356;2024-01-10T11:39:37;14.47;;;7.20;;
25627;SDS011;40915;50.826;4.356;2024-01-10T11:42:07;16.33;;;7.70;;
25627;SDS011;40915;50.826;4.356;2024-01-10T11:44:34;10.73;;;6.80;;
25627;SDS011;40915;50.826;4.356;2024-01-10T11:47:11;13.07;;;7.40;;
25627;SDS011;40915;50.826;4.356;2024-01-10T11:49:40;16.93;;;8.00;;
25627;SDS011;40915;50.826;4.356;2024-01-10T11:52:05;15.00;;;7.70;;
25627;SDS011;40915;50.826;4.356;2024-01-10T11:57:13;11.77;;;7.03;;
25627;SDS011;40915;50.826;4.356;2024-01-10T11:59:44;15.43;;;8.03;;
25627;SDS011;40915;50.826;4.356;2024-01-10T12:02:10;14.30;;;7.57;;
25627;SDS011;40915;50.826;4.356;2024-01-10T12:04:37;14.80;;;7.77;;
25627;SDS011;40915;50.826;4.356;2024-01-10T12:07:03;14.50;;;7.40;;
25627;SDS011;40915;50.826;4.356;2024-01-10T12:09:31;16.63;;;8.10;;
25627;SDS011;40915;50.826;4.356;2024-01-10T12:11:57;15.93;;;9.80;;
25627;SDS011;40915;50.826;4.356;2024-01-10T12:14:23;14.73;;;9.23;;
25627;SDS011;40915;50.826;4.356;2024-01-10T12:16:50;14.73;;;7.97;;
25627;SDS011;40915;50.826;4.356;2024-01-10T12:19:17;14.63;;;7.83;;
25627;SDS011;40915;50.826;4.356;2024-01-10T12:21:43;16.63;;;7.80;;
25627;SDS011;40915;50.826;4.356;2024-01-10T12:24:09;17.03;;;7.80;;
25627;SDS011;40915;50.826;4.356;2024-01-10T12:26:34;16.97;;;7.70;;
25627;SDS011;40915;50.826;4.356;2024-01-10T12:29:01;13.80;;;7.80;;
25627;SDS011;40915;50.826;4.356;2024-01-10T12:31:31;18.00;;;8.37;;
25627;SDS011;40915;50.826;4.356;2024-01-10T12:34:00;13.97;;;7.80;;
25627;SDS011;40915;50.826;4.356;2024-01-10T12:36:25;15.63;;;8.37;;
25627;SDS011;40915;50.826;4.356;2024-01-10T12:38:51;18.03;;;8.20;;
25627;SDS011;40915;50.826;4.356;2024-01-10T12:41:17;15.27;;;8.10;;
25627;SDS011;40915;50.826;4.356;2024-01-10T12:43:52;13.60;;;7.40;;
25627;SDS011;40915;50.826;4.356;2024-01-10T12:46:18;14.07;;;8.00;;
25627;SDS011;40915;50.826;4.356;2024-01-10T12:48:43;16.90;;;7.57;;
25627;SDS011;40915;50.826;4.356;2024-01-10T12:51:09;14.77;;;8.30;;
25627;SDS011;40915;50.826;4.356;2024-01-10T12:53:37;17.20;;;8.30;;
25627;SDS011;40915;50.826;4.356;2024-01-10T12:56:08;16.87;;;7.70;;
25627;SDS011;40915;50.826;4.356;2024-01-10T12:58:35;15.70;;;7.70;;
25627;SDS011;40915;50.826;4.356;2024-01-10T13:01:02;14.13;;;8.03;;
25627;SDS011;40915;50.826;4.356;2024-01-10T13:03:31;15.13;;;8.20;;
25627;SDS011;40915;50.826;4.356;2024-01-10T13:05:57;16.13;;;8.33;;
25627;SDS011;40915;50.826;4.356;2024-01-10T13:08:23;16.13;;;7.80;;
25627;SDS011;40915;50.826;4.356;2024-01-10T13:10:49;14.57;;;8.50;;
25627;SDS011;40915;50.826;4.356;2024-01-10T13:13:15;14.60;;;7.80;;
25627;SDS011;40915;50.826;4.356;2024-01-10T13:15:43;16.23;;;8.00;;
25627;SDS011;40915;50.826;4.356;2024-01-10T13:18:10;17.70;;;9.30;;
25627;SDS011;40915;50.826;4.356;2024-01-10T13:20:36;15.47;;;8.17;;
25627;SDS011;40915;50.826;4.356;2024-01-10T13:23:03;16.27;;;8.33;;
25627;SDS011;40915;50.826;4.356;2024-01-10T13:25:29;15.63;;;7.80;;
25627;SDS011;40915;50.826;4.356;2024-01-10T13:27:54;15.93;;;8.23;;
25627;SDS011;40915;50.826;4.356;2024-01-10T13:30:20;17.67;;;8.67;;
25627;SDS011;40915;50.826;4.356;2024-01-10T13:32:46;15.83;;;8.20;;
25627;SDS011;40915;50.826;4.356;2024-01-10T13:35:14;13.23;;;7.60;;
25627;SDS011;40915;50.826;4.356;2024-01-10T13:37:44;14.93;;;8.60;;
25627;SDS011;40915;50.826;4.356;2024-01-10T13:40:10;14.27;;;7.73;;
25627;SDS011;40915;50.826;4.356;2024-01-10T13:42:39;16.33;;;7.90;;
25627;SDS011;40915;50.826;4.356;2024-01-10T13:45:06;14.90;;;8.07;;
25627;SDS011;40915;50.826;4.356;2024-01-10T13:47:38;13.80;;;7.50;;
25627;SDS011;40915;50.826;4.356;2024-01-10T13:50:05;16.00;;;8.27;;
25627;SDS011;40915;50.826;4.356;2024-01-10T13:52:32;13.63;;;8.43;;
25627;SDS011;40915;50.826;4.356;2024-01-10T13:54:58;16.03;;;7.97;;
25627;SDS011;40915;50.826;4.356;2024-01-10T13:57:24;21.07;;;8.57;;
25627;SDS011;40915;50.826;4.356;2024-01-10T13:59:50;15.17;;;7.70;;
25627;SDS011;40915;50.826;4.356;2024-01-10T14:02:16;14.40;;;7.57;;
25627;SDS011;40915;50.826;4.356;2024-01-10T14:04:43;12.77;;;7.27;;
25627;SDS011;40915;50.826;4.356;2024-01-10T14:07:09;17.03;;;8.83;;
25627;SDS011;40915;50.826;4.356;2024-01-10T14:09:35;14.47;;;8.07;;
25627;SDS011;40915;50.826;4.356;2024-01-10T14:12:01;19.17;;;8.37;;
25627;SDS011;40915;50.826;4.356;2024-01-10T14:14:27;16.30;;;8.37;;
25627;SDS011;40915;50.826;4.356;2024-01-10T14:16:53;16.10;;;8.33;;
25627;SDS011;40915;50.826;4.356;2024-01-10T14:19:19;15.07;;;8.27;;
25627;SDS011;40915;50.826;4.356;2024-01-10T14:21:44;15.73;;;8.57;;
25627;SDS011;40915;50.826;4.356;2024-01-10T14:24:11;14.00;;;7.43;;
25627;SDS011;40915;50.826;4.356;2024-01-10T14:26:36;18.50;;;8.43;;
25627;SDS011;40915;50.826;4.356;2024-01-10T14:29:02;15.80;;;9.03;;
25627;SDS011;40915;50.826;4.356;2024-01-10T14:31:28;15.33;;;8.10;;
25627;SDS011;40915;50.826;4.356;2024-01-10T14:33:54;16.40;;;8.63;;
25627;SDS011;40915;50.826;4.356;2024-01-10T14:36:19;15.37;;;8.13;;
25627;SDS011;40915;50.826;4.356;2024-01-10T14:38:46;15.40;;;8.33;;
25627;SDS011;40915;50.826;4.356;2024-01-10T14:41:12;14.57;;;8.07;;
25627;SDS011;40915;50.826;4.356;2024-01-10T14:43:37;16.70;;;8.07;;
25627;SDS011;40915;50.826;4.356;2024-01-10T14:46:04;16.50;;;8.83;;